Архив погоды в Новоселенгинске

Метеограмма Новоселенгинск
Суббота, 23 Июня
Время местн. Темп Ветер Видим Явления Облачность нижн/средн/верх Атм. давл. Влжн Точка росы ВНГО R Сост. почвы Tg s
Напр Скр Прв ур.ст ур.м изм
20:00 +21.7° С 6 - 50 км - переменная облачность 708 754 +0.2 41% +7.8° 1.5 км 0 - - -
17:00 +24.9° С 7 10 более 50 км - переменная облачность 707 753 -1.1 31% +6.5° 1.5 км - - - -
14:00 +23.2° С,С-В 4 10 более 50 км - облачно с прояснениями 708 755 -0.8 42% +9.5° 1 км - - - -
11:00 +19.6° С 5 - более 50 км - облачно с прояснениями 709 756 +0.1 61% +11.8° 1.5 км - - - -
08:00 +17.2° С 5 - 50 км - облачно 709 757 +0.5 72% +12.2° 1.5 км 12 Влажная (без луж) - -
05:00 +16.1° В,С-В 3 - более 50 км - облачно 709 756 +0.1 83% +13.3° 1.5 км - - - -
02:00 +16.1° В,С-В 4 - 50 км ливневый дождь {гроза} облачно 709 756 +0.1 85% +13.5° 1 км - - - -
Пятница, 22 Июня
Время местн. Темп Ветер Видим Явления Облачность нижн/средн/верх Атм. давл. Влжн Точка росы ВНГО R Сост. почвы Tg s
Напр Скр Прв ур.ст ур.м изм
23:00 +17.1° С 6 16 12 км слабая или умеренная гроза с осадками облачно 709 756 +2.5 76% +12.8° 1 км - - - -
20:00 +22.6° С 12 17 более 50 км - облачно 706 753 +1.4 51% +12.1° более 2.5 км 0 - - -
17:00 +28.7° С 9 13 более 50 км - облачно 705 750 -0.5 31% +10.1° 1 км - - - -
14:00 +30.1° С 4 10 более 50 км - облачно с прояснениями 705 750 -0.9 29% +10° 1.5 км - - - -
11:00 +27.4° Ю-З 2 - более 50 км - облачно с прояснениями 706 752 -0.8 38% +11.7° 1.5 км - - - -
08:00 +20.9° Ю 1 - более 50 км - преимущественно облачно 707 754 +0.1 62% +13.3° более 2.5 км 0 Сухая (без трещин) +13° -
05:00 +14.7° С-З 1 - более 50 км - переменная облачность 707 755 0 81% +11.5° более 2.5 км - - - -
02:00 +18.3° В 1 - 50 км - облачно 707 754 +0.5 72% +13.1° 1 км - - - -
Четверг, 21 Июня
Время местн. Темп Ветер Видим Явления Облачность нижн/средн/верх Атм. давл. Влжн Точка росы ВНГО R Сост. почвы Tg s
Напр Скр Прв ур.ст ур.м изм
23:00 +21.3° В 1 - 50 км - преимущественно облачно 707 753 +0.6 58% +12.8° 1.5 км - - - -
20:00 +24.6° С 5 10 более 50 км - облачно 706 752 +0.5 44% +11.6° 1.5 км 0 - - -
17:00 +26.3° С-З 6 11 более 50 км - облачно 705 751 -0.3 40% +11.7° 1 км - - - -
14:00 +26.2° С 5 - более 50 км - облачно 706 751 -0.6 40% +11.5° 1.5 км - - - -
11:00 +25.1° С 5 - более 50 км - облачно 706 752 -0.2 46% +12.6° 1.5 км - - - -
08:00 +20.5° С 1 - более 50 км ливневый дождь облачно 707 753 +0.2 59% +12.3° 1.5 км 0 Сухая (без трещин) +17° -
05:00 +19.1° В,С-В 2 - более 50 км - облачно 706 753 +0.9 65% +12.4° 1 км - - - -
02:00 +20.9° В 4 - 50 км - облачно с прояснениями 705 752 -0.4 50% +10.1° 1.5 км - - - -
Среда, 20 Июня
Время местн. Темп Ветер Видим Явления Облачность нижн/средн/верх Атм. давл. Влжн Точка росы ВНГО R Сост. почвы Tg s
Напр Скр Прв ур.ст ур.м изм
23:00 +22.1° С,С-В 3 - 50 км - переменная облачность 706 752 +0.5 36% +6.3° 1.5 км - - - -
20:00 +26.4° В 2 - более 50 км - облачно 705 751 +0.2 26% +5.1° 1.5 км 0 - - -
17:00 +28.2° Ю 3 - более 50 км - облачно 705 751 -0.9 23% +5° 1.5 км - - - -